Time;durP1;ratioP1;P1;durP2;ratioP2;P2;SDS_P1;SDS_P2;PMS_P1;PMS_P2;Temp;Humidity;BMP_temperature;BMP_pressure;BME280_temperature;BME280_humidity;BME280_pressure;Samples;Min_cycle;Max_cycle;Signal;HPM_P1;HPM_P2
2024/03/20 00:00:44;;;;;;;14.63;4.93;;;9.60;98.00;;;;;;5053608;28;20457;-65
2024/03/20 00:03:11;;;;;;;16.90;5.50;;;9.60;98.00;;;;;;5053287;28;21143;-65
2024/03/20 00:05:38;;;;;;;9.43;4.97;;;9.40;98.00;;;;;;5053621;28;20489;-65
2024/03/20 00:08:06;;;;;;;10.53;5.10;;;9.40;98.00;;;;;;5053428;28;20453;-65
2024/03/20 00:10:33;;;;;;;8.77;5.03;;;9.60;98.00;;;;;;5053615;28;20551;-65
2024/03/20 00:13:00;;;;;;;7.63;4.60;;;9.70;98.00;;;;;;5053108;28;20449;-65
2024/03/20 00:15:30;;;;;;;7.57;4.63;;;9.50;98.00;;;;;;5053312;28;20457;-65
2024/03/20 00:17:59;;;;;;;11.13;5.57;;;9.30;98.00;;;;;;5051887;28;20584;-65
2024/03/20 00:20:26;;;;;;;8.50;4.97;;;9.30;98.00;;;;;;5053226;28;20514;-65
2024/03/20 00:22:53;;;;;;;12.07;4.80;;;9.20;98.00;;;;;;5053193;28;20451;-65
2024/03/20 00:25:20;;;;;;;10.03;5.10;;;8.90;98.00;;;;;;5052987;28;20454;-65
2024/03/20 00:27:47;;;;;;;9.93;4.50;;;8.80;98.00;;;;;;5053200;28;20461;-65
2024/03/20 00:30:14;;;;;;;9.77;4.70;;;8.70;98.00;;;;;;5052959;28;20442;-65
2024/03/20 00:32:46;;;;;;;7.23;4.53;;;8.70;98.00;;;;;;5053137;28;20531;-65
2024/03/20 00:35:13;;;;;;;10.17;5.03;;;8.70;98.00;;;;;;5052982;28;20461;-65
2024/03/20 00:37:41;;;;;;;11.40;5.30;;;8.60;98.00;;;;;;5052688;28;20534;-65
2024/03/20 00:40:09;;;;;;;9.30;5.00;;;8.50;98.00;;;;;;5052982;28;20852;-65
2024/03/20 00:42:38;;;;;;;9.53;4.57;;;8.60;98.00;;;;;;5052808;28;20491;-65
2024/03/20 00:45:06;;;;;;;8.70;4.80;;;8.80;98.00;;;;;;5052817;28;20445;-65
2024/03/20 00:47:34;;;;;;;13.03;4.93;;;8.70;98.00;;;;;;5052814;28;20486;-65
2024/03/20 00:50:02;;;;;;;9.57;5.13;;;8.50;98.00;;;;;;5052857;28;20453;-65
2024/03/20 00:52:29;;;;;;;8.70;4.73;;;8.40;98.00;;;;;;5052721;28;20504;-65
2024/03/20 00:54:57;;;;;;;9.30;5.40;;;8.40;98.00;;;;;;5052929;28;20528;-65
2024/03/20 00:57:24;;;;;;;11.63;4.73;;;8.40;98.00;;;;;;5051893;28;20484;-65
2024/03/20 00:59:52;;;;;;;10.50;5.27;;;8.30;98.00;;;;;;5052724;28;21019;-65
2024/03/20 01:02:19;;;;;;;7.83;4.77;;;8.30;98.00;;;;;;5052665;28;20462;-65
2024/03/20 01:04:46;;;;;;;8.57;4.90;;;8.20;98.00;;;;;;5052556;28;20458;-65
2024/03/20 01:07:14;;;;;;;11.80;4.90;;;8.20;98.00;;;;;;5050696;28;20813;-65
2024/03/20 01:09:42;;;;;;;8.40;4.90;;;8.20;98.00;;;;;;5032649;28;20796;-65
2024/03/20 01:12:10;;;;;;;9.70;5.30;;;8.00;98.00;;;;;;5032492;28;20463;-65
2024/03/20 01:14:37;;;;;;;10.60;5.13;;;8.10;98.00;;;;;;5047846;28;20451;-65
2024/03/20 01:17:33;;;;;;;11.00;5.00;;;8.00;98.00;;;;;;5032575;28;20559;-65
2024/03/20 01:20:01;;;;;;;8.63;5.03;;;7.80;98.00;;;;;;5032383;28;20519;-65
2024/03/20 01:22:33;;;;;;;10.30;5.47;;;7.80;98.00;;;;;;5032396;28;20462;-65
2024/03/20 01:25:00;;;;;;;9.13;5.40;;;7.80;98.00;;;;;;5032700;28;20473;-65
2024/03/20 01:27:27;;;;;;;9.17;5.60;;;7.70;98.00;;;;;;5032645;28;21129;-65
2024/03/20 01:29:54;;;;;;;8.63;5.13;;;7.70;98.00;;;;;;5032488;28;20953;-65
2024/03/20 01:32:22;;;;;;;12.40;5.33;;;7.70;98.00;;;;;;5032222;28;20453;-65
2024/03/20 01:34:49;;;;;;;9.67;4.97;;;7.80;98.00;;;;;;5032243;28;20455;-65
2024/03/20 01:37:16;;;;;;;13.07;5.80;;;7.80;98.00;;;;;;5031920;28;20483;-65
2024/03/20 01:39:45;;;;;;;9.43;4.77;;;7.80;98.00;;;;;;5031858;28;20452;-65
2024/03/20 01:42:12;;;;;;;9.80;4.90;;;7.80;98.00;;;;;;5031986;28;20462;-65
2024/03/20 01:44:40;;;;;;;12.67;5.33;;;7.60;98.00;;;;;;5032289;28;20446;-65
2024/03/20 01:47:07;;;;;;;9.33;4.80;;;7.50;98.00;;;;;;5031801;28;20945;-65
2024/03/20 01:49:35;;;;;;;9.37;5.47;;;7.40;98.00;;;;;;5031749;28;20446;-65
2024/03/20 01:52:03;;;;;;;12.53;5.10;;;7.40;98.00;;;;;;5031775;28;20824;-65
2024/03/20 01:54:31;;;;;;;8.00;4.80;;;7.40;98.00;;;;;;5032019;28;20466;-65
2024/03/20 01:57:00;;;;;;;10.50;5.47;;;7.40;98.00;;;;;;5031881;28;20489;-65
2024/03/20 01:59:27;;;;;;;9.00;4.80;;;7.40;98.00;;;;;;5031848;28;20822;-65
2024/03/20 02:01:57;;;;;;;10.30;4.60;;;7.50;98.00;;;;;;5031519;28;20459;-65
2024/03/20 02:04:24;;;;;;;9.23;4.80;;;7.50;98.00;;;;;;5031639;28;20529;-65
2024/03/20 02:06:51;;;;;;;10.43;5.03;;;7.50;98.00;;;;;;5031745;28;20531;-65
2024/03/20 02:09:19;;;;;;;9.63;5.00;;;7.50;98.00;;;;;;5033728;28;20485;-65
2024/03/20 02:11:46;;;;;;;10.40;4.90;;;7.60;98.00;;;;;;5035918;28;20453;-65
2024/03/20 02:14:15;;;;;;;10.30;5.03;;;7.40;98.00;;;;;;5035719;28;20458;-65
2024/03/20 02:16:42;;;;;;;10.50;5.40;;;7.20;98.00;;;;;;5035786;28;20899;-65
2024/03/20 02:19:09;;;;;;;9.70;4.63;;;7.20;98.00;;;;;;5035776;28;20457;-65
2024/03/20 02:21:38;;;;;;;8.17;5.33;;;7.20;98.00;;;;;;5035790;28;21003;-65
2024/03/20 02:24:07;;;;;;;11.10;4.37;;;7.30;98.00;;;;;;5035499;28;20487;-65
2024/03/20 02:26:34;;;;;;;11.03;5.53;;;7.40;98.00;;;;;;5035756;28;20535;-65
2024/03/20 02:29:03;;;;;;;9.27;4.87;;;7.30;98.00;;;;;;5035455;28;20518;-65
2024/03/20 02:31:30;;;;;;;10.57;5.37;;;7.20;98.00;;;;;;5035424;28;20454;-65
2024/03/20 02:33:57;;;;;;;10.43;4.67;;;7.20;98.00;;;;;;5035323;28;20454;-65
2024/03/20 02:36:25;;;;;;;9.17;4.70;;;7.10;98.00;;;;;;5035287;28;20461;-65
2024/03/20 02:38:54;;;;;;;8.40;4.57;;;7.10;98.00;;;;;;5035253;28;20455;-65
2024/03/20 02:41:23;;;;;;;9.07;4.70;;;7.10;98.00;;;;;;5035333;28;20462;-65
2024/03/20 02:43:52;;;;;;;13.30;4.73;;;7.00;98.00;;;;;;5035317;28;20458;-64
2024/03/20 02:46:20;;;;;;;10.60;5.10;;;7.00;98.00;;;;;;5035163;28;20458;-65
2024/03/20 02:48:47;;;;;;;8.90;4.33;;;6.90;98.00;;;;;;5034870;28;20464;-65
2024/03/20 02:51:14;;;;;;;9.13;4.87;;;6.80;98.00;;;;;;5035251;28;20464;-65
2024/03/20 02:53:42;;;;;;;8.53;4.80;;;6.80;98.00;;;;;;5035267;28;20454;-65
2024/03/20 02:56:10;;;;;;;9.90;5.30;;;6.80;98.00;;;;;;5035117;28;20517;-65
2024/03/20 02:58:37;;;;;;;11.10;5.00;;;6.80;98.00;;;;;;5035058;28;20491;-65
2024/03/20 03:01:04;;;;;;;7.73;4.77;;;6.80;98.00;;;;;;5034962;28;20453;-65
2024/03/20 03:03:30;;;;;;;8.90;4.83;;;6.70;98.00;;;;;;5035105;28;20464;-65
2024/03/20 03:05:58;;;;;;;8.60;4.60;;;6.80;98.00;;;;;;5035062;28;20532;-65
2024/03/20 03:08:25;;;;;;;9.73;5.40;;;6.90;98.00;;;;;;5034910;28;20504;-65
2024/03/20 03:10:54;;;;;;;9.23;4.70;;;6.70;98.00;;;;;;5035261;28;20932;-66
2024/03/20 03:13:23;;;;;;;9.20;4.63;;;6.70;98.00;;;;;;5034908;28;20450;-65
2024/03/20 03:15:51;;;;;;;7.93;4.50;;;6.90;98.00;;;;;;5035074;28;20454;-65
2024/03/20 03:18:19;;;;;;;9.60;4.90;;;6.90;98.00;;;;;;5034641;28;20597;-65
2024/03/20 03:20:46;;;;;;;10.07;4.90;;;7.00;98.00;;;;;;5033989;28;20537;-65
2024/03/20 03:23:13;;;;;;;8.47;5.00;;;7.10;98.00;;;;;;5034251;28;20555;-65
2024/03/20 03:25:40;;;;;;;7.70;4.83;;;7.10;98.00;;;;;;5034325;28;20944;-65
2024/03/20 03:28:07;;;;;;;13.07;6.47;;;7.10;98.00;;;;;;5034115;28;20466;-65
2024/03/20 03:30:36;;;;;;;13.63;6.13;;;7.00;98.00;;;;;;5034415;28;20515;-65
2024/03/20 03:33:04;;;;;;;14.80;5.93;;;6.90;98.00;;;;;;5034287;28;21007;-65
2024/03/20 03:35:31;;;;;;;11.97;5.67;;;6.80;98.00;;;;;;5034378;28;20455;-65
2024/03/20 03:38:00;;;;;;;12.00;5.40;;;6.70;98.00;;;;;;5033871;28;20485;-65
2024/03/20 03:40:28;;;;;;;12.10;5.50;;;6.60;98.00;;;;;;5034287;28;20455;-65
2024/03/20 03:42:55;;;;;;;12.70;5.33;;;6.60;98.00;;;;;;5034257;28;20485;-65
2024/03/20 03:45:22;;;;;;;10.67;5.30;;;6.80;98.00;;;;;;5033920;28;20462;-65
2024/03/20 03:47:51;;;;;;;7.83;4.50;;;6.70;98.00;;;;;;5033447;28;20458;-64
2024/03/20 03:50:18;;;;;;;11.13;5.50;;;6.60;98.00;;;;;;5033256;28;20460;-65
2024/03/20 03:52:46;;;;;;;8.30;4.93;;;6.50;98.00;;;;;;5033334;28;20969;-64
2024/03/20 03:55:13;;;;;;;8.77;4.83;;;6.50;98.00;;;;;;5033598;28;20939;-64
2024/03/20 03:57:40;;;;;;;14.60;5.57;;;6.50;98.00;;;;;;5033754;28;20500;-65
2024/03/20 04:00:10;;;;;;;10.10;4.87;;;6.60;98.00;;;;;;5033705;28;20453;-65
2024/03/20 04:02:37;;;;;;;11.57;5.27;;;6.50;98.00;;;;;;5033898;28;20459;-65
2024/03/20 04:05:07;;;;;;;10.87;5.13;;;6.40;98.00;;;;;;5033757;28;20461;-64
2024/03/20 04:07:34;;;;;;;9.40;4.77;;;6.40;98.00;;;;;;5033548;28;20824;-65
2024/03/20 04:10:01;;;;;;;8.90;5.17;;;6.30;98.00;;;;;;5033343;28;20457;-65
2024/03/20 04:12:31;;;;;;;20.30;8.43;;;6.40;98.00;;;;;;5036361;28;20459;-65
2024/03/20 04:14:58;;;;;;;11.53;5.73;;;6.30;98.00;;;;;;5053576;28;20450;-64
2024/03/20 04:17:25;;;;;;;10.20;4.93;;;6.10;98.00;;;;;;5053285;28;21000;-65
2024/03/20 04:19:52;;;;;;;12.63;5.40;;;6.00;98.00;;;;;;5053618;28;20844;-65
2024/03/20 04:22:22;;;;;;;10.47;5.60;;;6.10;98.00;;;;;;5053195;28;21061;-65
2024/03/20 04:24:49;;;;;;;9.10;5.10;;;6.00;98.00;;;;;;5053234;28;20982;-65
2024/03/20 04:27:16;;;;;;;8.60;4.80;;;6.10;98.00;;;;;;5053158;28;20449;-65
2024/03/20 04:29:45;;;;;;;10.90;5.40;;;6.10;98.00;;;;;;5053335;28;20862;-64
2024/03/20 04:32:13;;;;;;;7.97;4.67;;;6.30;98.00;;;;;;5051818;28;20525;-65
2024/03/20 04:34:40;;;;;;;11.27;5.50;;;6.10;98.00;;;;;;5053210;28;20457;-65
2024/03/20 04:37:07;;;;;;;9.10;4.80;;;6.20;98.00;;;;;;5053030;28;20460;-65
2024/03/20 04:39:36;;;;;;;9.17;5.00;;;6.10;98.00;;;;;;5052849;28;20453;-64
2024/03/20 04:42:04;;;;;;;11.80;5.20;;;6.10;98.00;;;;;;5052811;28;20451;-64
2024/03/20 04:44:31;;;;;;;8.67;4.70;;;6.00;98.00;;;;;;5052905;28;20456;-65
2024/03/20 04:46:58;;;;;;;11.90;4.90;;;5.80;98.00;;;;;;5053126;28;20797;-65
2024/03/20 04:49:24;;;;;;;10.10;5.37;;;5.80;98.00;;;;;;5052921;28;20801;-65
2024/03/20 04:51:51;;;;;;;19.63;5.70;;;5.70;98.00;;;;;;5052861;28;20461;-65
2024/03/20 04:54:18;;;;;;;11.53;5.20;;;5.80;98.00;;;;;;5052594;28;20448;-65
2024/03/20 04:56:47;;;;;;;8.23;5.00;;;5.80;98.00;;;;;;5052971;28;20864;-65
2024/03/20 04:59:14;;;;;;;9.67;5.13;;;5.80;98.00;;;;;;5052243;28;20500;-65
2024/03/20 05:01:42;;;;;;;10.37;5.23;;;5.80;98.00;;;;;;5052802;28;20443;-65
2024/03/20 05:04:09;;;;;;;12.40;5.57;;;6.00;98.00;;;;;;5052446;28;20464;-64
2024/03/20 05:06:36;;;;;;;10.50;4.90;;;6.00;98.00;;;;;;5052468;28;20473;-64
2024/03/20 05:09:05;;;;;;;8.73;4.77;;;5.90;98.00;;;;;;5052685;28;20465;-64
2024/03/20 05:11:32;;;;;;;11.73;5.50;;;5.80;98.00;;;;;;5052485;28;20457;-65
2024/03/20 05:14:00;;;;;;;14.10;4.87;;;6.00;98.00;;;;;;5052871;28;20460;-64
2024/03/20 05:16:28;;;;;;;11.30;5.10;;;6.00;98.00;;;;;;5052887;28;20511;-65
2024/03/20 05:18:56;;;;;;;9.40;4.87;;;5.90;98.00;;;;;;5052492;28;20490;-64
2024/03/20 05:21:22;;;;;;;10.83;4.90;;;5.90;98.00;;;;;;5052076;28;20493;-64
2024/03/20 05:23:49;;;;;;;11.80;5.43;;;5.90;98.00;;;;;;5052066;28;20468;-64
2024/03/20 05:26:16;;;;;;;7.87;4.60;;;5.90;98.00;;;;;;5052305;28;20517;-64
2024/03/20 05:28:44;;;;;;;10.13;4.93;;;5.80;98.00;;;;;;5052240;28;20852;-64
2024/03/20 05:31:25;;;;;;;10.30;4.93;;;5.90;98.00;;;;;;5051976;28;20803;-65
2024/03/20 05:33:52;;;;;;;8.33;4.47;;;6.00;98.00;;;;;;5051770;28;20472;-64
2024/03/20 05:36:19;;;;;;;10.33;5.40;;;5.90;98.00;;;;;;5051968;28;20813;-65
2024/03/20 05:38:46;;;;;;;7.83;4.60;;;5.90;98.00;;;;;;5051891;28;20568;-64
2024/03/20 05:41:14;;;;;;;13.50;5.03;;;5.90;98.00;;;;;;5051869;28;20461;-64
2024/03/20 05:43:41;;;;;;;11.03;4.80;;;6.10;98.00;;;;;;5051358;28;20473;-65
2024/03/20 05:46:09;;;;;;;16.47;5.47;;;6.20;98.00;;;;;;5051698;28;20493;-64
2024/03/20 05:48:38;;;;;;;8.57;4.90;;;6.20;98.00;;;;;;5052019;28;20461;-64
2024/03/20 05:51:04;;;;;;;10.60;5.57;;;6.40;98.00;;;;;;5051771;28;20461;-65
2024/03/20 05:53:31;;;;;;;12.80;5.00;;;6.30;98.00;;;;;;5051676;28;20487;-64
2024/03/20 05:55:58;;;;;;;10.30;5.20;;;6.20;98.00;;;;;;5051680;28;20461;-64
2024/03/20 05:58:26;;;;;;;11.70;4.90;;;6.00;98.00;;;;;;5051590;28;21157;-64
2024/03/20 06:00:52;;;;;;;9.30;4.93;;;6.10;98.00;;;;;;5051659;28;20457;-64
2024/03/20 06:03:27;;;;;;;9.80;5.20;;;6.00;98.00;;;;;;5051665;28;20467;-64
2024/03/20 06:05:54;;;;;;;8.40;4.57;;;6.00;98.00;;;;;;5051583;28;20473;-64
2024/03/20 06:08:22;;;;;;;10.63;4.87;;;6.00;98.00;;;;;;5051448;28;20548;-64
2024/03/20 06:10:48;;;;;;;10.57;5.13;;;6.00;98.00;;;;;;5051843;28;20545;-64
2024/03/20 06:13:15;;;;;;;7.70;4.70;;;6.20;98.00;;;;;;5051541;28;20544;-64
2024/03/20 06:15:41;;;;;;;13.17;5.80;;;6.20;98.00;;;;;;5051781;28;20454;-64
2024/03/20 06:18:08;;;;;;;10.40;5.23;;;6.20;98.00;;;;;;5051531;28;20482;-65
2024/03/20 06:20:35;;;;;;;8.43;4.73;;;6.20;98.00;;;;;;5051638;28;20450;-64
2024/03/20 06:23:05;;;;;;;9.93;5.13;;;6.10;98.00;;;;;;5051636;28;20462;-64
2024/03/20 06:25:31;;;;;;;12.07;5.40;;;6.20;98.00;;;;;;5051815;28;20464;-65
2024/03/20 06:27:58;;;;;;;11.07;5.23;;;6.30;98.00;;;;;;5051428;28;20467;-64
2024/03/20 06:30:25;;;;;;;10.63;5.13;;;6.30;98.00;;;;;;5051383;28;20454;-64
2024/03/20 06:32:53;;;;;;;8.80;4.87;;;6.40;98.00;;;;;;5051430;28;20936;-64
2024/03/20 06:35:20;;;;;;;10.23;4.93;;;6.50;98.00;;;;;;5051672;28;20474;-65
2024/03/20 06:37:47;;;;;;;8.90;5.00;;;6.60;98.00;;;;;;5051469;28;20504;-69
2024/03/20 06:40:16;;;;;;;13.43;5.70;;;6.60;98.00;;;;;;5051494;28;20463;-65
2024/03/20 06:42:43;;;;;;;11.97;5.90;;;6.70;98.00;;;;;;5051404;28;20499;-65
2024/03/20 06:45:10;;;;;;;11.83;5.90;;;6.70;98.00;;;;;;5051245;28;20460;-64
2024/03/20 06:47:36;;;;;;;12.80;5.90;;;6.80;98.00;;;;;;5051459;28;20491;-64
2024/03/20 06:50:06;;;;;;;10.60;5.80;;;6.90;98.00;;;;;;5051563;28;20546;-64
2024/03/20 06:52:38;;;;;;;10.70;5.43;;;6.90;98.00;;;;;;5051254;28;21146;-64
2024/03/20 06:55:14;;;;;;;12.90;6.00;;;7.00;98.00;;;;;;5052856;28;21248;-64
2024/03/20 06:57:41;;;;;;;11.93;5.70;;;7.00;98.00;;;;;;5055257;28;20492;-65
2024/03/20 07:00:17;;;;;;;12.03;5.53;;;7.20;98.00;;;;;;5055166;28;20463;-64
2024/03/20 07:02:44;;;;;;;12.30;5.47;;;7.10;98.00;;;;;;5055110;28;20479;-64
2024/03/20 07:05:15;;;;;;;13.20;6.20;;;7.00;98.00;;;;;;5055075;28;20996;-64
2024/03/20 07:07:42;;;;;;;12.17;6.10;;;7.00;98.00;;;;;;5054604;28;20499;-64
2024/03/20 07:10:11;;;;;;;11.30;6.23;;;7.00;98.00;;;;;;5054481;28;20499;-64
2024/03/20 07:12:39;;;;;;;11.90;6.13;;;7.10;98.00;;;;;;5054593;28;20459;-64
2024/03/20 07:15:09;;;;;;;14.20;6.73;;;7.30;98.00;;;;;;5054758;28;20475;-64
2024/03/20 07:17:36;;;;;;;12.17;6.27;;;7.50;98.00;;;;;;5054500;28;20453;-64
2024/03/20 07:20:06;;;;;;;12.50;6.83;;;7.60;98.00;;;;;;5054371;28;20464;-64
2024/03/20 07:22:33;;;;;;;16.23;6.90;;;7.80;98.00;;;;;;5054389;28;20876;-61
2024/03/20 07:25:01;;;;;;;11.43;5.80;;;7.90;98.00;;;;;;5054223;28;20462;-61
2024/03/20 07:27:32;;;;;;;13.40;6.97;;;8.00;98.00;;;;;;5054473;28;20538;-62
2024/03/20 07:29:59;;;;;;;9.67;5.70;;;8.20;98.00;;;;;;5052070;28;20468;-61
2024/03/20 07:32:27;;;;;;;12.03;6.50;;;8.20;98.00;;;;;;5054137;28;20488;-61
2024/03/20 07:34:54;;;;;;;12.63;6.20;;;8.30;98.00;;;;;;5054108;28;20497;-61
2024/03/20 07:37:20;;;;;;;14.47;6.40;;;8.30;98.00;;;;;;5054247;28;20458;-61
2024/03/20 07:39:47;;;;;;;13.73;6.33;;;8.50;98.00;;;;;;5054117;28;20531;-61
2024/03/20 07:42:13;;;;;;;13.27;6.20;;;8.60;98.00;;;;;;5052923;28;20460;-61
2024/03/20 07:44:41;;;;;;;13.57;6.33;;;8.70;98.00;;;;;;5054017;28;20900;-61
2024/03/20 07:47:07;;;;;;;14.07;6.73;;;8.70;98.00;;;;;;5052858;28;20458;-61
2024/03/20 07:49:35;;;;;;;11.87;6.30;;;8.90;98.00;;;;;;5054026;28;21255;-62
2024/03/20 07:52:01;;;;;;;14.63;6.87;;;9.00;98.00;;;;;;5054034;28;20456;-61
2024/03/20 07:54:28;;;;;;;12.30;6.30;;;9.30;98.00;;;;;;5053798;28;20828;-62
2024/03/20 07:56:55;;;;;;;17.73;7.10;;;9.40;98.00;;;;;;5053660;28;20442;-61
2024/03/20 07:59:23;;;;;;;11.93;6.43;;;9.40;98.00;;;;;;5052447;28;20577;-61
2024/03/20 08:01:50;;;;;;;12.67;6.30;;;9.60;98.00;;;;;;5052582;28;20459;-61
2024/03/20 08:04:18;;;;;;;12.30;6.10;;;9.80;98.00;;;;;;5052347;28;20890;-61
2024/03/20 08:06:46;;;;;;;18.73;6.97;;;9.80;98.00;;;;;;5052244;28;20511;-60
2024/03/20 08:09:13;;;;;;;10.63;5.97;;;10.00;98.00;;;;;;5053487;28;20621;-62
2024/03/20 08:11:39;;;;;;;14.17;6.90;;;10.20;98.00;;;;;;5053742;28;20451;-61
2024/03/20 08:14:13;;;;;;;13.63;6.93;;;10.40;98.00;;;;;;5052201;28;20476;-62
2024/03/20 08:16:39;;;;;;;14.73;6.63;;;10.60;98.00;;;;;;5052563;28;20462;-61
2024/03/20 08:19:07;;;;;;;11.73;6.73;;;10.60;98.00;;;;;;5053363;28;20482;-61
2024/03/20 08:21:34;;;;;;;13.20;7.03;;;10.90;98.00;;;;;;5035966;28;20505;-61
2024/03/20 08:24:04;;;;;;;12.17;6.57;;;10.90;98.00;;;;;;5047522;28;20489;-61
2024/03/20 08:26:30;;;;;;;19.57;7.40;;;11.00;98.00;;;;;;5053362;28;20450;-61
2024/03/20 08:28:58;;;;;;;11.30;6.70;;;11.10;98.00;;;;;;5052117;28;20460;-61
2024/03/20 08:31:24;;;;;;;12.80;6.70;;;11.30;98.00;;;;;;5053256;28;20533;-61
2024/03/20 08:33:52;;;;;;;12.73;6.93;;;11.50;98.00;;;;;;5053476;28;20459;-61
2024/03/20 08:36:20;;;;;;;16.10;7.27;;;11.60;98.00;;;;;;5053343;28;20456;-61
2024/03/20 08:38:47;;;;;;;14.30;7.23;;;11.70;98.00;;;;;;5053139;28;20484;-61
2024/03/20 08:41:15;;;;;;;12.23;6.47;;;11.80;98.00;;;;;;5052086;28;20452;-61
2024/03/20 08:43:42;;;;;;;11.93;6.80;;;12.00;98.00;;;;;;5053152;28;20504;-61
2024/03/20 08:46:08;;;;;;;13.50;7.30;;;12.10;98.00;;;;;;5052220;28;20455;-61
2024/03/20 08:48:36;;;;;;;15.40;7.43;;;12.20;98.00;;;;;;5052789;28;20539;-61
2024/03/20 08:51:02;;;;;;;13.50;7.20;;;12.30;98.00;;;;;;5052738;28;20454;-61
2024/03/20 08:53:31;;;;;;;14.10;6.57;;;12.60;98.00;;;;;;5052826;28;20638;-61
2024/03/20 08:55:59;;;;;;;7.70;4.43;;;12.80;98.00;;;;;;5052606;28;20444;-62
2024/03/20 08:58:29;;;;;;;8.70;4.80;;;13.10;98.00;;;;;;5051160;28;20485;-63
2024/03/20 09:00:57;;;;;;;9.80;4.60;;;14.00;98.00;;;;;;5052581;28;20468;-63
2024/03/20 09:03:24;;;;;;;14.93;5.30;;;14.80;98.00;;;;;;5052526;28;20456;-63
2024/03/20 09:05:50;;;;;;;8.53;4.80;;;15.50;98.00;;;;;;5052358;28;20456;-62
2024/03/20 09:08:18;;;;;;;11.17;6.40;;;15.80;98.00;;;;;;5052194;28;20444;-61
2024/03/20 09:10:45;;;;;;;12.23;6.30;;;15.90;98.00;;;;;;5052254;28;20499;-61
2024/03/20 09:13:12;;;;;;;13.43;6.83;;;15.80;98.00;;;;;;5034409;28;20469;-61
2024/03/20 09:15:40;;;;;;;11.63;5.93;;;15.60;98.00;;;;;;5052430;28;20965;-61
2024/03/20 09:18:07;;;;;;;11.93;6.33;;;15.30;98.00;;;;;;5051650;28;20514;-61
2024/03/20 09:20:33;;;;;;;9.27;5.30;;;15.20;98.00;;;;;;5052180;28;20526;-62
2024/03/20 09:23:04;;;;;;;9.17;5.50;;;15.20;98.00;;;;;;5052135;28;20462;-61
2024/03/20 09:25:30;;;;;;;10.67;5.50;;;15.10;98.00;;;;;;5052324;28;20449;-61
2024/03/20 09:27:59;;;;;;;10.27;5.20;;;15.30;98.00;;;;;;5052132;28;20457;-61
2024/03/20 09:30:26;;;;;;;8.07;5.30;;;15.40;98.00;;;;;;5052277;28;20454;-62
2024/03/20 09:32:54;;;;;;;11.70;6.10;;;15.60;98.00;;;;;;5052155;28;20876;-61
2024/03/20 09:35:20;;;;;;;9.93;6.17;;;15.70;98.00;;;;;;5051976;28;20918;-62
2024/03/20 09:37:48;;;;;;;9.00;5.70;;;15.90;98.00;;;;;;5051974;28;20489;-61
2024/03/20 09:40:22;;;;;;;12.50;5.00;;;15.90;98.00;;;;;;5051645;28;20538;-61
2024/03/20 09:42:51;;;;;;;9.07;4.83;;;15.90;98.00;;;;;;5051655;28;20549;-61
2024/03/20 09:45:19;;;;;;;9.07;5.10;;;16.00;98.00;;;;;;5051922;28;20461;-62
2024/03/20 09:47:49;;;;;;;8.00;4.80;;;16.00;98.00;;;;;;5034016;28;20462;-62
2024/03/20 09:50:18;;;;;;;9.33;5.20;;;16.10;98.00;;;;;;5051915;28;20557;-62
2024/03/20 09:52:49;;;;;;;8.50;4.80;;;16.30;98.00;;;;;;5051783;28;20819;-62
2024/03/20 09:55:16;;;;;;;10.83;5.47;;;16.50;98.00;;;;;;5041099;28;20481;-62
2024/03/20 09:57:45;;;;;;;8.40;5.20;;;16.70;98.00;;;;;;5031793;28;20463;-62
2024/03/20 10:00:14;;;;;;;8.77;5.33;;;16.70;98.00;;;;;;5024622;28;20491;-62
2024/03/20 10:02:43;;;;;;;7.57;4.97;;;16.90;98.00;;;;;;5011289;28;20518;-62
2024/03/20 10:05:15;;;;;;;8.33;5.07;;;17.10;98.00;;;;;;5011217;28;20455;-62
2024/03/20 10:07:44;;;;;;;10.80;6.10;;;17.30;98.00;;;;;;5011206;28;20555;-62
2024/03/20 10:10:13;;;;;;;6.93;4.77;;;17.30;98.00;;;;;;5010967;28;20875;-62
2024/03/20 10:12:40;;;;;;;11.37;5.87;;;17.50;98.00;;;;;;5011989;28;20471;-62
2024/03/20 10:15:07;;;;;;;11.67;5.30;;;17.70;98.00;;;;;;5013345;28;20494;-62
2024/03/20 10:17:35;;;;;;;8.53;4.77;;;17.90;98.00;;;;;;5031310;28;20473;-62
2024/03/20 10:20:05;;;;;;;7.87;4.73;;;18.10;98.00;;;;;;5031342;28;20486;-62
2024/03/20 10:22:35;;;;;;;6.37;4.03;;;18.30;98.00;;;;;;5031853;28;20505;-62
2024/03/20 10:25:03;;;;;;;7.90;4.37;;;18.50;98.00;;;;;;5031391;28;20450;-62
2024/03/20 10:27:30;;;;;;;7.30;4.00;;;18.60;98.00;;;;;;5031368;28;20491;-62
2024/03/20 10:29:59;;;;;;;8.87;4.03;;;18.70;98.00;;;;;;5032954;28;20450;-62
2024/03/20 10:32:29;;;;;;;5.77;3.40;;;18.90;98.00;;;;;;5035834;28;20462;-62
2024/03/20 10:35:01;;;;;;;4.90;3.37;;;19.10;98.00;;;;;;5035706;28;20451;-62
2024/03/20 10:37:30;;;;;;;5.03;3.67;;;19.20;98.00;;;;;;5034454;28;20541;-62
2024/03/20 10:39:58;;;;;;;4.43;3.10;;;19.30;98.00;;;;;;5034911;28;20495;-62
2024/03/20 10:42:28;;;;;;;4.33;3.23;;;19.40;98.00;;;;;;5034928;28;20945;-63
2024/03/20 10:44:55;;;;;;;5.50;3.20;;;19.60;98.00;;;;;;5034901;28;20458;-62
2024/03/20 10:47:25;;;;;;;4.80;3.30;;;19.70;98.00;;;;;;5035213;28;20505;-63
2024/03/20 10:49:53;;;;;;;5.10;3.23;;;19.70;98.00;;;;;;5035089;28;20478;-64
2024/03/20 10:52:19;;;;;;;4.80;2.93;;;19.80;98.00;;;;;;5034986;28;20462;-62
2024/03/20 10:54:47;;;;;;;6.00;3.50;;;19.90;98.00;;;;;;5034772;28;20470;-62
2024/03/20 10:57:13;;;;;;;6.63;3.10;;;20.00;98.00;;;;;;5034849;28;20455;-62
2024/03/20 10:59:41;;;;;;;4.43;2.70;;;20.10;98.00;;;;;;5033081;28;21039;-62
2024/03/20 11:02:14;;;;;;;6.37;2.63;;;20.30;97.40;;;;;;5034320;28;20542;-62
2024/03/20 11:04:42;;;;;;;3.80;2.87;;;20.50;97.40;;;;;;5034614;28;20473;-62
2024/03/20 11:07:35;;;;;;;3.57;2.50;;;20.70;95.20;;;;;;5033347;28;20466;-63
2024/03/20 11:10:17;;;;;;;7.20;2.70;;;20.90;97.30;;;;;;5026116;28;20470;-63
2024/03/20 11:12:43;;;;;;;4.30;2.97;;;21.00;94.00;;;;;;5034614;28;20455;-62
2024/03/20 11:15:18;;;;;;;4.30;2.80;;;21.00;95.20;;;;;;5034230;28;20494;-63
2024/03/20 11:17:51;;;;;;;4.60;2.60;;;21.10;93.60;;;;;;5034553;28;21121;-62
2024/03/20 11:20:41;;;;;;;3.90;2.60;;;21.20;96.20;;;;;;5034210;28;20482;-62
2024/03/20 11:23:22;;;;;;;4.23;2.73;;;21.60;93.90;;;;;;5029473;28;20458;-62
2024/03/20 11:25:49;;;;;;;4.77;3.50;;;21.80;94.40;;;;;;5034465;28;20462;-62
2024/03/20 11:28:16;;;;;;;3.73;3.00;;;22.00;94.90;;;;;;5033882;28;20627;-62
2024/03/20 11:30:44;;;;;;;4.73;3.00;;;22.20;92.60;;;;;;5034259;28;20487;-62
2024/03/20 11:33:11;;;;;;;4.30;2.77;;;22.30;91.70;;;;;;5034158;28;20459;-62
2024/03/20 11:35:38;;;;;;;4.20;3.03;;;22.40;90.20;;;;;;5034092;28;20561;-62
2024/03/20 11:38:05;;;;;;;4.30;2.87;;;22.40;91.50;;;;;;5034122;28;20542;-62
2024/03/20 11:40:33;;;;;;;6.97;3.10;;;22.30;90.40;;;;;;5033640;28;20846;-62
2024/03/20 11:43:00;;;;;;;3.93;2.50;;;22.30;87.80;;;;;;5016369;28;20828;-62
2024/03/20 11:45:30;;;;;;;6.60;2.50;;;22.50;89.30;;;;;;5034170;28;20463;-62
2024/03/20 11:47:58;;;;;;;5.00;2.97;;;22.50;88.60;;;;;;5034077;28;20450;-62
2024/03/20 11:50:26;;;;;;;3.53;2.53;;;22.70;90.10;;;;;;5034034;28;20877;-62
2024/03/20 11:52:53;;;;;;;3.20;2.50;;;22.60;87.90;;;;;;5032623;28;20477;-62
2024/03/20 11:55:23;;;;;;;3.77;2.60;;;22.80;89.00;;;;;;5033935;28;20462;-62
2024/03/20 11:57:51;;;;;;;3.83;2.50;;;22.90;86.50;;;;;;5034036;28;20462;-62
2024/03/20 12:00:19;;;;;;;3.67;2.60;;;23.00;87.40;;;;;;5033739;28;20540;-63
2024/03/20 12:02:47;;;;;;;3.80;2.50;;;23.10;87.20;;;;;;5033881;28;20455;-62
2024/03/20 12:05:16;;;;;;;3.70;2.70;;;23.20;88.60;;;;;;5033723;28;20498;-62
2024/03/20 12:07:42;;;;;;;6.17;2.50;;;23.20;86.50;;;;;;5033555;28;20462;-63
2024/03/20 12:10:31;;;;;;;6.70;2.67;;;23.20;87.80;;;;;;5033643;28;21089;-62
2024/03/20 12:12:59;;;;;;;3.50;2.50;;;23.00;88.50;;;;;;5033686;28;20461;-62
2024/03/20 12:15:27;;;;;;;5.97;2.70;;;22.90;88.00;;;;;;5033618;28;20925;-62
2024/03/20 12:17:54;;;;;;;3.97;2.70;;;22.70;88.70;;;;;;5032332;28;20517;-62
2024/03/20 12:20:23;;;;;;;5.77;2.70;;;22.40;88.70;;;;;;5033322;28;20867;-62
2024/03/20 12:22:50;;;;;;;4.07;2.50;;;22.30;88.50;;;;;;5033575;28;20459;-62
2024/03/20 12:25:18;;;;;;;4.27;2.67;;;22.30;90.20;;;;;;5033365;28;20458;-62
2024/03/20 12:27:45;;;;;;;3.43;2.53;;;22.30;89.60;;;;;;5032324;28;20463;-63
2024/03/20 12:30:12;;;;;;;3.97;2.70;;;22.30;89.10;;;;;;5033204;28;20451;-62
2024/03/20 12:32:40;;;;;;;3.07;2.23;;;22.40;89.30;;;;;;5033484;28;20498;-62
2024/03/20 12:35:06;;;;;;;2.90;2.40;;;22.60;88.70;;;;;;5033077;28;20940;-62
2024/03/20 12:37:35;;;;;;;2.83;2.47;;;22.70;88.40;;;;;;5032669;28;20466;-63
2024/03/20 12:40:03;;;;;;;3.30;2.40;;;22.80;88.00;;;;;;5032727;28;20482;-63
2024/03/20 12:42:30;;;;;;;3.40;2.40;;;22.80;88.80;;;;;;5033129;28;20458;-63
2024/03/20 12:44:56;;;;;;;3.97;2.70;;;22.90;86.40;;;;;;5032939;28;20844;-63
2024/03/20 12:47:23;;;;;;;3.60;2.47;;;23.00;86.90;;;;;;5032750;28;20471;-63
2024/03/20 12:49:52;;;;;;;3.83;2.37;;;23.10;85.10;;;;;;5031448;28;20459;-62
2024/03/20 12:52:21;;;;;;;4.60;2.30;;;23.30;85.00;;;;;;5032009;28;20525;-62